Time;durP1;ratioP1;P1;durP2;ratioP2;P2;SDS_P1;SDS_P2;PMS_P1;PMS_P2;Temp;Humidity;BMP_temperature;BMP_pressure;BME280_temperature;BME280_humidity;BME280_pressure;Samples;Min_cycle;Max_cycle;Signal;HPM_P1;HPM_P2
2022/06/16 00:02:07;;;;;;;10.65;4.40;;;15.30;99.90;;;;;;5038421;28;20044;-84
2022/06/16 00:04:32;;;;;;;8.35;3.90;;;15.30;99.90;;;;;;5054466;28;20036;-84
2022/06/16 00:06:59;;;;;;;8.68;3.97;;;15.30;99.90;;;;;;5054760;28;20136;-84
2022/06/16 00:09:25;;;;;;;9.63;4.38;;;15.30;99.90;;;;;;5053662;28;20045;-85
2022/06/16 00:11:51;;;;;;;9.45;3.85;;;15.30;99.90;;;;;;5054174;28;20062;-83
2022/06/16 00:14:17;;;;;;;8.60;4.00;;;15.30;99.90;;;;;;5054717;28;20036;-84
2022/06/16 00:16:43;;;;;;;9.55;3.95;;;15.20;99.90;;;;;;5038283;28;20044;-84
2022/06/16 00:19:08;;;;;;;8.90;4.18;;;15.20;99.90;;;;;;5053262;28;20047;-84
2022/06/16 00:21:34;;;;;;;8.48;3.00;;;15.20;99.90;;;;;;5055058;28;20081;-84
2022/06/16 00:24:00;;;;;;;10.18;4.60;;;15.10;99.90;;;;;;5037875;28;20086;-84
2022/06/16 00:26:27;;;;;;;8.80;3.35;;;15.10;99.90;;;;;;5054702;28;20117;-84
2022/06/16 00:28:53;;;;;;;8.23;4.10;;;15.00;99.90;;;;;;5054880;28;20041;-84
2022/06/16 00:31:21;;;;;;;10.00;4.00;;;15.10;99.90;;;;;;5053494;28;20049;-84
2022/06/16 00:33:48;;;;;;;11.85;4.95;;;15.10;99.90;;;;;;5053914;28;20442;-84
2022/06/16 00:36:14;;;;;;;9.77;4.30;;;15.10;99.90;;;;;;5054007;28;20033;-84
2022/06/16 00:38:40;;;;;;;9.52;4.55;;;15.10;99.90;;;;;;5053594;28;20074;-84
2022/06/16 00:41:07;;;;;;;9.15;3.40;;;15.00;99.90;;;;;;5053837;28;20036;-84
2022/06/16 00:43:32;;;;;;;9.35;4.40;;;14.90;99.90;;;;;;5054458;28;20472;-84
2022/06/16 00:46:02;;;;;;;8.90;4.20;;;14.90;99.90;;;;;;5054889;28;20745;-84
2022/06/16 00:48:36;;;;;;;10.02;4.28;;;14.90;99.90;;;;;;5054025;28;20052;-84
2022/06/16 00:51:13;;;;;;;10.38;5.03;;;14.90;99.90;;;;;;5036376;28;20048;-84
2022/06/16 00:53:40;;;;;;;9.55;4.75;;;14.90;99.90;;;;;;5054654;28;20039;-84
2022/06/16 00:56:09;;;;;;;8.93;4.90;;;14.80;99.90;;;;;;5053232;28;20075;-84
2022/06/16 00:58:40;;;;;;;12.15;5.35;;;14.70;99.90;;;;;;5053564;28;20032;-84
2022/06/16 01:01:07;;;;;;;10.93;4.30;;;14.70;99.90;;;;;;5035952;28;20036;-84
2022/06/16 01:06:30;;;;;;;9.90;4.90;;;14.60;99.90;;;;;;5054177;28;20044;-84
2022/06/16 01:09:15;;;;;;;12.75;3.95;;;14.60;99.90;;;;;;5051892;28;20040;-83
2022/06/16 01:15:13;;;;;;;11.20;5.60;;;14.20;99.90;;;;;;5054152;28;20067;-84
2022/06/16 01:18:06;;;;;;;10.00;5.03;;;14.20;99.90;;;;;;5052976;28;20123;-84
2022/06/16 01:20:57;;;;;;;11.68;4.50;;;14.20;99.90;;;;;;5052962;28;20054;-83
2022/06/16 01:23:37;;;;;;;10.02;4.07;;;14.10;99.90;;;;;;5053749;28;20049;-84
2022/06/16 01:26:35;;;;;;;9.95;3.65;;;14.00;99.90;;;;;;5053304;28;20047;-83
2022/06/16 01:29:21;;;;;;;7.90;3.78;;;14.00;99.90;;;;;;5052912;28;20052;-83
2022/06/16 01:31:50;;;;;;;10.32;5.00;;;14.00;99.90;;;;;;5036403;28;20075;-84
2022/06/16 01:34:52;;;;;;;9.50;4.13;;;13.90;99.90;;;;;;5053246;28;20136;-83
2022/06/16 01:37:30;;;;;;;9.88;3.85;;;13.90;99.90;;;;;;5049104;28;20090;-84
2022/06/16 01:40:05;;;;;;;13.73;6.03;;;13.90;99.90;;;;;;5053293;28;20512;-83
2022/06/16 01:42:37;;;;;;;8.98;3.97;;;13.90;99.90;;;;;;5052469;28;20109;-83
2022/06/16 01:45:15;;;;;;;11.43;5.78;;;13.80;99.90;;;;;;5053721;28;20128;-83
2022/06/16 01:47:47;;;;;;;10.60;4.35;;;13.80;99.90;;;;;;5052142;28;20098;-83
2022/06/16 01:50:18;;;;;;;11.38;5.88;;;13.80;99.90;;;;;;5053032;28;20045;-84
2022/06/16 01:52:57;;;;;;;8.63;4.32;;;13.80;99.90;;;;;;5052499;28;20028;-84
2022/06/16 01:55:30;;;;;;;9.82;5.40;;;13.70;99.90;;;;;;5052652;28;20082;-84
2022/06/16 01:58:14;;;;;;;11.63;4.35;;;13.70;99.90;;;;;;5053031;28;20158;-84
2022/06/16 02:00:43;;;;;;;10.27;4.85;;;13.50;99.90;;;;;;5052028;28;20046;-84
2022/06/16 02:03:31;;;;;;;10.10;5.72;;;13.40;99.90;;;;;;5052551;28;20067;-84
2022/06/16 02:06:16;;;;;;;10.00;5.32;;;13.30;99.90;;;;;;5034656;28;20048;-84
2022/06/16 02:08:46;;;;;;;11.40;4.20;;;13.40;99.90;;;;;;5036422;28;20067;-84
2022/06/16 02:11:22;;;;;;;10.40;3.40;;;13.30;99.90;;;;;;5035251;28;20048;-84
2022/06/16 02:14:16;;;;;;;11.25;5.38;;;13.30;99.90;;;;;;5052693;28;20037;-84
2022/06/16 02:16:44;;;;;;;10.50;4.63;;;13.30;99.90;;;;;;5052761;28;20885;-83
2022/06/16 02:19:14;;;;;;;9.20;4.30;;;13.30;99.90;;;;;;5051648;28;20501;-84
2022/06/16 02:21:43;;;;;;;12.63;6.25;;;13.30;99.90;;;;;;5036484;28;20049;-84
2022/06/16 02:24:12;;;;;;;10.80;5.75;;;13.40;99.90;;;;;;5035843;28;20090;-84
2022/06/16 02:26:37;;;;;;;10.77;6.18;;;13.50;99.90;;;;;;5053062;28;20192;-84
2022/06/16 02:29:30;;;;;;;10.27;4.63;;;13.50;99.90;;;;;;5052442;28;20063;-84
2022/06/16 02:32:29;;;;;;;8.77;3.47;;;13.40;99.90;;;;;;5037992;28;20043;-84
2022/06/16 02:35:21;;;;;;;12.57;4.22;;;13.40;99.90;;;;;;5056693;28;20085;-84
2022/06/16 02:38:21;;;;;;;10.88;6.20;;;13.30;99.90;;;;;;5056709;28;20036;-84
2022/06/16 02:41:08;;;;;;;8.77;4.03;;;13.40;99.90;;;;;;5002258;28;20192;-84
2022/06/16 02:43:52;;;;;;;10.90;4.32;;;13.30;99.90;;;;;;5040073;28;20040;-84
2022/06/16 02:46:29;;;;;;;10.68;6.35;;;13.20;99.90;;;;;;5056883;28;20048;-84
2022/06/16 02:49:16;;;;;;;10.90;5.82;;;13.30;99.90;;;;;;5055746;28;20501;-84
2022/06/16 02:52:01;;;;;;;10.73;5.72;;;13.20;99.90;;;;;;5056364;28;20048;-83
2022/06/16 02:55:08;;;;;;;10.65;3.90;;;13.20;99.90;;;;;;5055674;28;20169;-84
2022/06/16 02:57:58;;;;;;;10.00;4.43;;;12.90;99.90;;;;;;4995638;28;20500;-84
2022/06/16 03:00:36;;;;;;;10.00;3.83;;;12.80;99.90;;;;;;5054760;28;20074;-84
2022/06/16 03:03:27;;;;;;;10.85;4.13;;;12.70;99.90;;;;;;5056095;28;20083;-84
2022/06/16 03:05:55;;;;;;;10.27;5.53;;;12.70;99.90;;;;;;5039876;28;20131;-83
2022/06/16 03:08:22;;;;;;;10.90;4.80;;;12.60;99.90;;;;;;5052711;28;20048;-82
2022/06/16 03:10:51;;;;;;;11.25;6.47;;;12.60;99.90;;;;;;5037148;28;20070;-83
2022/06/16 03:13:19;;;;;;;9.65;4.25;;;12.60;99.90;;;;;;5055745;28;20037;-83
2022/06/16 03:15:44;;;;;;;9.82;6.07;;;12.60;99.90;;;;;;5055819;28;20732;-83
2022/06/16 03:18:10;;;;;;;8.48;4.07;;;12.60;99.90;;;;;;5056084;28;20127;-83
2022/06/16 03:20:36;;;;;;;11.27;6.15;;;12.60;99.90;;;;;;5055270;28;20044;-84
2022/06/16 03:23:01;;;;;;;9.40;4.57;;;12.60;99.90;;;;;;5039780;28;20036;-83
2022/06/16 03:25:27;;;;;;;10.65;4.22;;;12.60;99.90;;;;;;5055223;28;20383;-84
2022/06/16 03:27:53;;;;;;;9.65;5.85;;;12.50;99.90;;;;;;5056247;28;20041;-84
2022/06/16 03:30:18;;;;;;;11.45;4.20;;;12.50;99.90;;;;;;5055757;28;20054;-84
2022/06/16 03:32:44;;;;;;;9.68;4.18;;;12.50;99.90;;;;;;5053849;28;20045;-83
2022/06/16 03:35:09;;;;;;;9.32;3.88;;;12.50;99.90;;;;;;5039510;28;20042;-84
2022/06/16 03:37:35;;;;;;;9.60;4.15;;;12.50;99.90;;;;;;5054956;28;20417;-83
2022/06/16 03:40:00;;;;;;;7.93;3.50;;;12.50;99.90;;;;;;5038342;28;20036;-83
2022/06/16 03:42:27;;;;;;;9.85;5.32;;;12.40;99.90;;;;;;5039099;28;20576;-84
2022/06/16 03:44:52;;;;;;;8.73;4.18;;;12.50;99.90;;;;;;5055509;28;20037;-84
2022/06/16 03:47:18;;;;;;;10.27;4.57;;;12.40;99.90;;;;;;5055818;28;20413;-84
2022/06/16 03:49:43;;;;;;;11.77;4.72;;;12.40;99.90;;;;;;5055314;28;20044;-84
2022/06/16 03:52:09;;;;;;;11.27;6.53;;;12.40;99.90;;;;;;5072804;28;20066;-84
2022/06/16 03:54:35;;;;;;;13.77;6.43;;;12.40;99.90;;;;;;5055542;28;20036;-84
2022/06/16 03:57:00;;;;;;;10.57;4.80;;;12.50;99.90;;;;;;5054815;28;20535;-84
2022/06/16 03:59:26;;;;;;;13.93;4.72;;;12.40;99.90;;;;;;5054790;28;20100;-84
2022/06/16 04:01:52;;;;;;;10.23;4.57;;;12.30;99.90;;;;;;5055111;28;20036;-84
2022/06/16 04:04:17;;;;;;;8.73;4.63;;;12.30;99.90;;;;;;5055157;28;20680;-83
2022/06/16 04:06:43;;;;;;;10.38;4.78;;;12.30;99.90;;;;;;5055206;28;20043;-84
2022/06/16 04:09:09;;;;;;;10.02;5.45;;;12.20;99.90;;;;;;5054827;28;20123;-83
2022/06/16 04:11:34;;;;;;;8.82;4.22;;;12.30;99.90;;;;;;5054608;28;20502;-84
2022/06/16 04:14:11;;;;;;;10.65;5.75;;;12.30;99.90;;;;;;5055191;28;20033;-84
2022/06/16 04:16:39;;;;;;;10.50;3.83;;;12.30;99.90;;;;;;5054395;28;20159;-84
2022/06/16 04:19:06;;;;;;;11.05;4.80;;;12.30;99.90;;;;;;5037508;28;20539;-83
2022/06/16 04:21:35;;;;;;;9.85;5.70;;;12.30;99.90;;;;;;5054912;28;20087;-83
2022/06/16 04:24:01;;;;;;;8.30;4.38;;;12.40;99.90;;;;;;5054303;28;20040;-83
2022/06/16 04:26:26;;;;;;;9.63;4.57;;;12.40;99.90;;;;;;5055157;28;20067;-83
2022/06/16 04:28:52;;;;;;;9.75;4.45;;;12.30;99.90;;;;;;5038101;28;20040;-84
2022/06/16 04:31:18;;;;;;;9.35;4.25;;;12.40;99.90;;;;;;5053728;28;20052;-84
2022/06/16 04:33:43;;;;;;;12.15;4.82;;;12.40;99.90;;;;;;5038053;28;20037;-83
2022/06/16 04:36:10;;;;;;;10.88;6.07;;;12.50;99.90;;;;;;5037676;28;20048;-84
2022/06/16 04:38:35;;;;;;;12.38;5.03;;;12.60;99.90;;;;;;5054449;28;20033;-83
2022/06/16 04:41:01;;;;;;;11.48;6.57;;;12.70;99.90;;;;;;5037565;28;20037;-83
2022/06/16 04:43:28;;;;;;;9.68;4.50;;;12.80;99.90;;;;;;5041736;28;20036;-84
2022/06/16 04:45:55;;;;;;;11.60;5.60;;;12.80;99.90;;;;;;5065669;28;20044;-84
2022/06/16 04:48:20;;;;;;;12.68;7.28;;;12.90;99.90;;;;;;5046437;28;20451;-83
2022/06/16 04:50:46;;;;;;;10.43;5.57;;;13.00;99.90;;;;;;5047315;28;20119;-83
2022/06/16 04:53:11;;;;;;;10.10;4.75;;;13.10;99.90;;;;;;5053743;28;20513;-83
2022/06/16 04:55:38;;;;;;;10.50;6.65;;;13.10;99.90;;;;;;5053832;28;20515;-83
2022/06/16 04:58:04;;;;;;;9.88;5.03;;;13.20;99.90;;;;;;5036710;28;20028;-83
2022/06/16 05:00:30;;;;;;;12.55;6.75;;;13.30;99.90;;;;;;5053368;28;20051;-83
2022/06/16 05:02:56;;;;;;;12.25;5.25;;;13.40;99.90;;;;;;5038078;28;20127;-83
2022/06/16 05:05:22;;;;;;;13.27;6.72;;;13.50;99.90;;;;;;5037012;28;20040;-83
2022/06/16 05:07:47;;;;;;;13.07;5.63;;;13.60;99.90;;;;;;5054226;28;20166;-83
2022/06/16 05:10:13;;;;;;;12.38;5.78;;;13.70;99.90;;;;;;5053414;28;20320;-83
2022/06/16 05:12:39;;;;;;;12.40;7.55;;;13.70;99.90;;;;;;5054015;28;20048;-83
2022/06/16 05:15:06;;;;;;;12.35;6.05;;;13.80;99.90;;;;;;5054027;28;20172;-83
2022/06/16 05:17:31;;;;;;;13.45;5.72;;;13.90;99.90;;;;;;5052977;28;20029;-83
2022/06/16 05:19:57;;;;;;;12.85;6.78;;;13.90;99.90;;;;;;5053168;28;20041;-83
2022/06/16 05:22:23;;;;;;;10.93;5.88;;;14.00;99.90;;;;;;5053858;28;20062;-84
2022/06/16 05:24:49;;;;;;;14.60;6.85;;;14.10;99.90;;;;;;5057563;28;20124;-84
2022/06/16 05:27:16;;;;;;;11.43;5.95;;;14.10;99.90;;;;;;5054358;28;20072;-83
2022/06/16 05:29:42;;;;;;;12.30;5.82;;;14.10;99.90;;;;;;5052369;28;20040;-83
2022/06/16 05:32:09;;;;;;;11.48;7.22;;;14.20;99.90;;;;;;5053772;28;20033;-83
2022/06/16 05:34:36;;;;;;;10.07;5.68;;;14.30;99.90;;;;;;5053523;28;20037;-83
2022/06/16 05:37:02;;;;;;;12.00;6.40;;;14.40;99.90;;;;;;5052762;28;20396;-83
2022/06/16 05:39:27;;;;;;;12.13;6.40;;;14.40;99.90;;;;;;5053332;28;20041;-83
2022/06/16 05:41:53;;;;;;;12.32;5.50;;;14.50;99.90;;;;;;5052988;28;20039;-83
2022/06/16 05:44:19;;;;;;;11.27;6.47;;;14.60;99.90;;;;;;5053856;28;20079;-84
2022/06/16 05:46:44;;;;;;;16.58;5.72;;;14.70;99.90;;;;;;5053608;28;20039;-84
2022/06/16 05:49:15;;;;;;;10.25;4.85;;;14.70;99.90;;;;;;5036328;28;20488;-84
2022/06/16 05:51:41;;;;;;;11.52;6.18;;;14.80;99.90;;;;;;5053273;28;20063;-84
2022/06/16 05:54:07;;;;;;;13.77;5.80;;;14.90;99.90;;;;;;5052403;28;20115;-84
2022/06/16 05:56:33;;;;;;;11.75;5.60;;;14.90;99.90;;;;;;5053258;28;20093;-84
2022/06/16 05:58:58;;;;;;;9.10;5.20;;;14.90;99.90;;;;;;5052264;28;20032;-84
2022/06/16 06:01:24;;;;;;;10.45;5.65;;;15.00;99.90;;;;;;5036142;28;20048;-84
2022/06/16 06:03:50;;;;;;;9.80;4.45;;;15.10;99.90;;;;;;5052928;28;20033;-84
2022/06/16 06:06:15;;;;;;;9.75;4.35;;;15.10;99.90;;;;;;5053159;28;20043;-84
2022/06/16 06:17:07;;;;;;;10.98;4.45;;;15.40;99.90;;;;;;5047216;28;20044;-84
2022/06/16 06:19:32;;;;;;;10.10;3.55;;;15.50;99.90;;;;;;5052712;28;20086;-82
2022/06/16 06:22:13;;;;;;;9.50;3.45;;;15.50;99.90;;;;;;5049848;28;20444;-83
2022/06/16 06:24:42;;;;;;;8.45;3.70;;;15.60;99.90;;;;;;5035836;28;20070;-84
2022/06/16 06:27:16;;;;;;;8.80;3.40;;;15.80;99.90;;;;;;5034769;28;20032;-83
2022/06/16 06:29:43;;;;;;;7.57;3.13;;;15.90;99.90;;;;;;5052120;28;20040;-84
2022/06/16 06:32:11;;;;;;;8.25;2.95;;;16.00;99.90;;;;;;5052226;28;20042;-83
2022/06/16 06:34:37;;;;;;;8.45;3.03;;;16.00;99.90;;;;;;5052053;28;20033;-84
2022/06/16 06:37:04;;;;;;;8.20;3.03;;;16.00;99.90;;;;;;5035062;28;20083;-84
2022/06/16 06:39:30;;;;;;;11.98;3.75;;;16.10;99.90;;;;;;5050322;28;20036;-84
2022/06/16 06:41:55;;;;;;;14.63;3.92;;;16.20;99.90;;;;;;5035801;28;20070;-84
2022/06/16 06:44:21;;;;;;;7.93;3.00;;;16.30;99.90;;;;;;5051702;28;20033;-84
2022/06/16 06:46:47;;;;;;;8.05;2.60;;;16.30;99.90;;;;;;5052410;28;20064;-84
2022/06/16 06:49:12;;;;;;;8.23;2.42;;;16.40;99.90;;;;;;5059901;28;20040;-84
2022/06/16 06:51:39;;;;;;;8.75;3.38;;;16.50;99.90;;;;;;5034476;28;20044;-85
2022/06/16 06:54:04;;;;;;;9.68;3.72;;;16.60;99.90;;;;;;5052063;28;20036;-84
2022/06/16 06:56:32;;;;;;;8.88;2.70;;;16.70;99.90;;;;;;5051608;28;20043;-84
2022/06/16 06:59:01;;;;;;;7.80;2.70;;;16.80;99.90;;;;;;5051771;28;20039;-85
2022/06/16 07:01:27;;;;;;;8.00;2.67;;;16.80;99.90;;;;;;5069787;28;20044;-85
2022/06/16 07:03:53;;;;;;;8.75;2.80;;;16.90;99.90;;;;;;5034838;28;20036;-85
2022/06/16 07:06:19;;;;;;;6.38;2.00;;;17.00;99.90;;;;;;5052131;28;20044;-84
2022/06/16 07:08:45;;;;;;;7.55;2.20;;;17.00;99.90;;;;;;5035830;28;20044;-84
2022/06/16 07:11:12;;;;;;;8.98;2.60;;;17.10;99.90;;;;;;5034306;28;20127;-84
2022/06/16 07:13:37;;;;;;;6.95;2.33;;;17.20;99.90;;;;;;5035189;28;20043;-84
2022/06/16 07:16:04;;;;;;;7.25;2.08;;;17.30;99.90;;;;;;5051380;28;20036;-84
2022/06/16 07:18:29;;;;;;;5.90;1.60;;;17.40;99.90;;;;;;5037739;28;20382;-84
2022/06/16 07:20:55;;;;;;;5.07;1.45;;;17.40;99.90;;;;;;5054455;28;20090;-84
2022/06/16 07:23:21;;;;;;;6.97;1.60;;;17.50;99.90;;;;;;5055839;28;20086;-84
2022/06/16 07:25:48;;;;;;;3.38;1.20;;;17.50;99.90;;;;;;5039011;28;20127;-84
2022/06/16 07:28:14;;;;;;;4.80;1.40;;;17.60;99.90;;;;;;5054869;28;20582;-84
2022/06/16 07:30:40;;;;;;;6.80;1.55;;;17.70;99.90;;;;;;5055436;28;20040;-84
2022/06/16 07:33:06;;;;;;;4.88;1.40;;;17.70;99.90;;;;;;5054486;28;20033;-84
2022/06/16 07:35:33;;;;;;;4.90;1.40;;;17.80;99.90;;;;;;5055908;28;20050;-84
2022/06/16 07:37:58;;;;;;;4.88;1.50;;;17.90;99.90;;;;;;5037444;28;20036;-84
2022/06/16 07:40:24;;;;;;;6.30;1.70;;;17.90;99.90;;;;;;5054496;28;20040;-84
2022/06/16 07:42:54;;;;;;;7.20;1.50;;;18.00;99.90;;;;;;5054923;28;20254;-84
2022/06/16 07:45:20;;;;;;;5.43;1.27;;;18.10;99.90;;;;;;5055430;28;20478;-84
2022/06/16 07:47:46;;;;;;;6.00;1.63;;;18.10;99.90;;;;;;5056421;28;20427;-84
2022/06/16 07:50:12;;;;;;;5.38;1.55;;;18.20;99.90;;;;;;5054650;28;20413;-85
2022/06/16 07:52:38;;;;;;;4.03;1.40;;;18.30;99.90;;;;;;5055345;28;20047;-84
2022/06/16 07:55:05;;;;;;;3.88;1.23;;;18.30;99.90;;;;;;5052450;28;20456;-85
2022/06/16 07:57:34;;;;;;;5.43;1.40;;;18.30;99.90;;;;;;5037545;28;20040;-84
2022/06/16 08:00:00;;;;;;;6.22;1.50;;;18.40;99.90;;;;;;5038203;28;20390;-84
2022/06/16 08:02:27;;;;;;;3.38;1.20;;;18.50;99.90;;;;;;5053821;28;20098;-84
2022/06/16 08:04:53;;;;;;;4.95;1.30;;;18.60;99.90;;;;;;5038110;28;20036;-84
2022/06/16 08:07:19;;;;;;;4.85;1.45;;;18.60;99.90;;;;;;5052934;28;20087;-84
2022/06/16 08:09:44;;;;;;;4.75;1.33;;;18.70;99.90;;;;;;5053046;28;20101;-85
2022/06/16 08:12:11;;;;;;;5.38;1.40;;;18.70;99.90;;;;;;5055081;28;20095;-84
2022/06/16 08:14:43;;;;;;;5.85;1.67;;;18.80;99.90;;;;;;5037475;28;20033;-85
2022/06/16 08:17:17;;;;;;;6.22;1.67;;;18.80;99.90;;;;;;5054343;28;20070;-85
2022/06/16 08:19:43;;;;;;;4.95;1.50;;;18.90;99.90;;;;;;5053178;28;20414;-84
2022/06/16 08:22:09;;;;;;;5.95;1.50;;;18.90;99.90;;;;;;5054468;28;20127;-84
2022/06/16 08:24:34;;;;;;;6.20;1.50;;;19.00;99.90;;;;;;5054502;28;20115;-84
2022/06/16 08:27:02;;;;;;;6.60;1.50;;;19.10;99.90;;;;;;5054491;28;20119;-84
2022/06/16 08:29:27;;;;;;;5.28;1.50;;;19.20;99.90;;;;;;5036221;28;20048;-85
2022/06/16 08:31:55;;;;;;;5.88;1.80;;;19.20;99.90;;;;;;5054129;28;20032;-85
2022/06/16 08:34:20;;;;;;;8.65;1.90;;;19.30;99.90;;;;;;5054162;28;20048;-85
2022/06/16 08:36:46;;;;;;;6.05;1.80;;;19.30;99.90;;;;;;5053934;28;20045;-85
2022/06/16 08:39:11;;;;;;;5.95;1.90;;;19.40;99.90;;;;;;5036960;28;20157;-84
2022/06/16 08:41:46;;;;;;;8.60;2.30;;;19.50;99.90;;;;;;5054085;28;20405;-85
2022/06/16 08:44:29;;;;;;;17.60;2.65;;;19.50;99.90;;;;;;5053273;28;20086;-85
2022/06/16 08:47:06;;;;;;;16.50;2.83;;;19.60;99.90;;;;;;5054336;28;20070;-85
2022/06/16 08:49:39;;;;;;;10.38;2.03;;;19.70;99.90;;;;;;5053530;28;20043;-85
2022/06/16 08:52:17;;;;;;;6.82;1.88;;;19.70;99.80;;;;;;5036432;28;20510;-84
2022/06/16 08:54:57;;;;;;;5.38;1.67;;;19.80;99.30;;;;;;5037557;28;20516;-85
2022/06/16 08:57:46;;;;;;;7.55;2.13;;;19.90;99.90;;;;;;5053382;28;20063;-84
2022/06/16 09:00:16;;;;;;;7.20;2.55;;;20.00;99.90;;;;;;5036713;28;20064;-84
2022/06/16 09:03:06;;;;;;;7.05;1.95;;;20.00;99.90;;;;;;5053511;28;20044;-84
2022/06/16 09:05:54;;;;;;;5.93;1.85;;;20.10;99.00;;;;;;5058379;28;20055;-83
2022/06/16 09:08:36;;;;;;;6.53;1.95;;;20.10;99.80;;;;;;5055373;28;20121;-83
2022/06/16 09:11:24;;;;;;;6.60;1.90;;;20.20;99.20;;;;;;5053901;28;20120;-83
2022/06/16 09:14:00;;;;;;;6.18;1.92;;;20.30;99.90;;;;;;5061118;28;20048;-84
2022/06/16 09:16:55;;;;;;;7.07;1.75;;;20.30;99.90;;;;;;5042240;28;20121;-83
2022/06/16 09:19:48;;;;;;;6.45;1.80;;;20.40;98.20;;;;;;5036748;28;20063;-83
2022/06/16 09:22:34;;;;;;;7.07;2.10;;;20.50;98.90;;;;;;5053840;28;20416;-84
2022/06/16 09:25:29;;;;;;;8.50;2.10;;;20.50;98.50;;;;;;5053457;28;20072;-84
2022/06/16 09:28:05;;;;;;;7.15;2.08;;;20.60;97.40;;;;;;5040515;28;20126;-84
2022/06/16 09:30:38;;;;;;;5.60;1.92;;;20.60;97.90;;;;;;5050720;28;20045;-85
2022/06/16 09:33:12;;;;;;;6.20;1.80;;;20.70;95.70;;;;;;5050687;28;20490;-84
2022/06/16 09:35:42;;;;;;;5.63;2.10;;;20.80;97.90;;;;;;5050357;28;20028;-85
2022/06/16 09:38:18;;;;;;;7.35;2.25;;;20.80;97.60;;;;;;5041259;28;20127;-85
2022/06/16 09:40:51;;;;;;;5.97;1.73;;;20.90;96.50;;;;;;5040838;28;20037;-85
2022/06/16 09:43:27;;;;;;;7.45;1.90;;;21.00;94.50;;;;;;5026551;28;20047;-85
2022/06/16 09:46:14;;;;;;;7.00;1.98;;;21.10;96.70;;;;;;5030480;28;20044;-85
2022/06/16 09:48:45;;;;;;;6.72;1.90;;;21.20;98.10;;;;;;5052668;28;20417;-85
2022/06/16 09:51:33;;;;;;;5.20;1.83;;;21.30;97.30;;;;;;5032991;28;20047;-84
2022/06/16 09:54:00;;;;;;;6.60;2.10;;;21.40;95.20;;;;;;5050653;28;20035;-84
2022/06/16 09:56:31;;;;;;;7.55;2.30;;;21.40;95.20;;;;;;5033265;28;20032;-84
2022/06/16 09:59:18;;;;;;;7.32;2.10;;;21.50;94.90;;;;;;5034380;28;20033;-84
2022/06/16 10:02:06;;;;;;;6.88;2.00;;;21.60;94.20;;;;;;5050748;28;20051;-84
2022/06/16 10:04:32;;;;;;;5.63;1.83;;;21.70;92.50;;;;;;5050441;28;20049;-83
2022/06/16 10:07:14;;;;;;;9.45;2.65;;;21.70;91.80;;;;;;5050609;28;20093;-84
2022/06/16 10:10:08;;;;;;;8.80;2.83;;;21.80;85.60;;;;;;5069487;28;20040;-84
2022/06/16 10:12:46;;;;;;;8.73;2.33;;;21.80;87.50;;;;;;5046978;28;20040;-84
2022/06/16 10:15:27;;;;;;;5.78;2.22;;;21.80;85.60;;;;;;5051328;28;20047;-84
2022/06/16 10:17:54;;;;;;;6.30;2.17;;;21.90;90.30;;;;;;5052503;28;20043;-84
2022/06/16 10:20:21;;;;;;;6.25;2.17;;;22.00;90.50;;;;;;5051745;28;20059;-84
2022/06/16 10:22:56;;;;;;;7.32;2.85;;;22.10;91.40;;;;;;5051685;28;20042;-84
2022/06/16 10:25:23;;;;;;;7.57;2.42;;;22.30;93.40;;;;;;5035716;28;20512;-84
2022/06/16 10:28:14;;;;;;;7.13;2.60;;;22.30;90.40;;;;;;5052279;28;20052;-84
2022/06/16 10:30:40;;;;;;;6.70;2.50;;;22.40;84.40;;;;;;5051038;28;20140;-84
2022/06/16 10:33:16;;;;;;;6.72;2.53;;;22.50;84.80;;;;;;5056066;28;20072;-84
2022/06/16 10:35:57;;;;;;;8.02;2.50;;;22.60;83.10;;;;;;5055416;28;20036;-84
2022/06/16 10:38:33;;;;;;;5.80;2.30;;;22.70;87.40;;;;;;5056194;28;20044;-84
2022/06/16 10:41:01;;;;;;;7.07;2.20;;;22.80;87.40;;;;;;5051765;28;20036;-84
2022/06/16 10:43:29;;;;;;;6.85;2.30;;;22.90;83.20;;;;;;5051803;28;20446;-84
2022/06/16 10:46:15;;;;;;;5.97;2.15;;;22.90;85.30;;;;;;5051866;28;20032;-84
2022/06/16 10:48:49;;;;;;;6.95;2.17;;;23.10;84.60;;;;;;5036067;28;20046;-84
2022/06/16 10:51:19;;;;;;;7.95;2.63;;;23.20;84.90;;;;;;5051349;28;20079;-84
2022/06/16 10:54:05;;;;;;;7.82;2.83;;;23.30;82.80;;;;;;5073069;28;20112;-84
2022/06/16 10:56:30;;;;;;;7.18;2.30;;;23.40;80.80;;;;;;5055709;28;20440;-84
2022/06/16 10:58:56;;;;;;;8.75;2.60;;;23.40;79.00;;;;;;5038900;28;20037;-85
2022/06/16 11:01:33;;;;;;;7.53;2.45;;;23.50;78.50;;;;;;5055593;28;20055;-85
2022/06/16 11:04:12;;;;;;;7.38;2.13;;;23.60;82.40;;;;;;5055564;28;20091;-85
2022/06/16 11:06:45;;;;;;;7.13;2.28;;;23.70;82.60;;;;;;5056273;28;20040;-85
2022/06/16 11:09:11;;;;;;;6.70;2.40;;;23.90;81.60;;;;;;5054923;28;20115;-85
2022/06/16 11:11:46;;;;;;;5.75;2.17;;;23.90;73.80;;;;;;5055764;28;20076;-85
2022/06/16 11:14:17;;;;;;;8.00;2.30;;;23.90;73.20;;;;;;5055908;28;20048;-85
2022/06/16 11:16:51;;;;;;;7.22;2.30;;;24.00;74.30;;;;;;5038226;28;20413;-85
2022/06/16 11:19:51;;;;;;;8.88;2.58;;;24.10;73.70;;;;;;5055433;28;20378;-85
2022/06/16 11:22:38;;;;;;;7.90;2.40;;;24.10;65.50;;;;;;5022184;28;20331;-85
2022/06/16 11:25:26;;;;;;;5.60;2.15;;;24.10;65.30;;;;;;5055722;28;20448;-85
2022/06/16 11:27:57;;;;;;;7.32;2.17;;;24.10;75.50;;;;;;5038677;28;20036;-84
2022/06/16 11:30:29;;;;;;;8.98;2.72;;;24.20;73.30;;;;;;5037812;28;20043;-85
2022/06/16 11:32:55;;;;;;;8.40;2.70;;;24.20;69.50;;;;;;5055067;28;20557;-85
2022/06/16 11:35:32;;;;;;;9.75;2.92;;;24.20;69.10;;;;;;5054804;28;20044;-84
2022/06/16 11:38:05;;;;;;;8.35;2.80;;;24.20;74.20;;;;;;5054404;28;20076;-84
2022/06/16 11:40:37;;;;;;;7.00;2.45;;;24.20;74.50;;;;;;5054735;28;20044;-85
2022/06/16 11:43:57;;;;;;;8.20;2.58;;;24.30;74.10;;;;;;5073092;28;20051;-85
2022/06/16 11:46:28;;;;;;;6.28;2.40;;;24.50;73.30;;;;;;4981671;28;20096;-84
2022/06/16 11:49:16;;;;;;;7.65;2.53;;;24.60;70.10;;;;;;5041754;28;20128;-84
2022/06/16 11:51:55;;;;;;;8.18;2.55;;;24.70;69.00;;;;;;5054474;28;20098;-84
2022/06/16 11:54:31;;;;;;;7.30;2.65;;;24.80;68.30;;;;;;5055303;28;20036;-84
2022/06/16 11:57:10;;;;;;;7.07;2.15;;;24.90;68.40;;;;;;5055163;28;20032;-84
2022/06/16 12:00:00;;;;;;;7.47;2.80;;;25.00;68.40;;;;;;5053803;28;20494;-84
2022/06/16 12:02:31;;;;;;;7.82;2.75;;;25.00;66.60;;;;;;5054996;28;20484;-84
2022/06/16 12:05:02;;;;;;;7.32;2.70;;;24.90;64.80;;;;;;5038129;28;20033;-85
2022/06/16 12:07:52;;;;;;;8.48;2.75;;;24.80;65.70;;;;;;5054595;28;20032;-85
2022/06/16 12:10:30;;;;;;;8.90;3.10;;;24.70;64.70;;;;;;5037761;28;20049;-85
2022/06/16 12:13:20;;;;;;;10.18;3.10;;;24.70;63.40;;;;;;5054248;28;20438;-85
2022/06/16 12:15:56;;;;;;;6.97;2.50;;;24.80;63.50;;;;;;5054094;28;20139;-84
2022/06/16 12:18:40;;;;;;;6.93;3.05;;;24.90;63.10;;;;;;5035494;28;20035;-84
2022/06/16 12:21:17;;;;;;;8.82;2.80;;;25.10;64.30;;;;;;5034717;28;20087;-85
2022/06/16 12:24:06;;;;;;;9.60;3.50;;;25.30;66.40;;;;;;5051587;28;20799;-84
2022/06/16 12:26:41;;;;;;;8.38;3.05;;;25.30;64.50;;;;;;5053881;28;20040;-84
2022/06/16 12:29:24;;;;;;;7.35;2.58;;;25.50;64.10;;;;;;5053322;28;20056;-84
2022/06/16 12:32:28;;;;;;;10.43;2.40;;;25.70;64.20;;;;;;5037284;28;20049;-84
2022/06/16 12:35:05;;;;;;;7.53;2.90;;;25.70;61.40;;;;;;5054075;28;20086;-84
2022/06/16 12:37:34;;;;;;;7.97;2.60;;;25.80;60.50;;;;;;5030232;28;20033;-84
2022/06/16 12:40:38;;;;;;;8.23;2.45;;;25.70;60.50;;;;;;5037340;28;20299;-84
2022/06/16 12:43:16;;;;;;;7.20;2.75;;;25.70;61.20;;;;;;5035944;28;20410;-84
2022/06/16 12:45:45;;;;;;;9.15;2.70;;;25.90;62.60;;;;;;5037977;28;20066;-84
2022/06/16 12:48:29;;;;;;;7.85;2.50;;;26.00;63.30;;;;;;5054584;28;20074;-84
2022/06/16 12:50:58;;;;;;;8.73;2.35;;;26.20;62.70;;;;;;5053113;28;20400;-85
2022/06/16 12:53:35;;;;;;;7.53;2.60;;;26.30;62.20;;;;;;5037784;28;20036;-85
2022/06/16 12:56:09;;;;;;;7.05;2.35;;;26.50;59.30;;;;;;5053303;28;20103;-85
2022/06/16 12:58:45;;;;;;;8.18;2.70;;;26.60;61.30;;;;;;5053600;28;20078;-85
2022/06/16 13:01:14;;;;;;;9.77;2.35;;;26.60;61.70;;;;;;5053130;28;20701;-86
2022/06/16 13:03:45;;;;;;;5.80;2.10;;;26.70;61.90;;;;;;5053641;28;20075;-85
2022/06/16 13:06:12;;;;;;;7.30;2.60;;;26.80;63.00;;;;;;5037057;28;20493;-85
2022/06/16 13:08:41;;;;;;;8.57;2.30;;;26.90;61.90;;;;;;5036918;28;20391;-85
2022/06/16 13:11:12;;;;;;;8.75;2.85;;;27.00;62.80;;;;;;5053086;28;20123;-85
2022/06/16 13:13:44;;;;;;;7.88;2.50;;;27.00;61.30;;;;;;5052970;28;20687;-85
2022/06/16 13:16:09;;;;;;;7.85;2.50;;;27.10;58.80;;;;;;5052529;28;20065;-85
2022/06/16 13:18:56;;;;;;;6.45;2.40;;;27.10;57.30;;;;;;5053085;28;20488;-85
2022/06/16 13:21:28;;;;;;;7.78;2.40;;;27.20;58.80;;;;;;5052646;28;20115;-85
2022/06/16 13:24:11;;;;;;;;;;;27.30;59.00;;;;;;5053792;28;20044;-85
2022/06/16 13:26:55;;;;;;;7.68;2.45;;;27.20;60.80;;;;;;5052803;28;19982;-85